Fishtail, MT

10:33 PM MST on February 27, 2015 (GMT -0700)
North Davidson Ave., Absarokee | Change Station
CLOSE
Current Station
Personal Weather Station
Location: Absarokee, MT
Elevation: 4042 ft
Nearby Weather Stations

Elev 4042 ft 45.52 °N, 109.44 °W | Updated 21 seconds ago

Overcast
Overcast
19.8 °F
Feels Like 20 °F
N
0.2
Wind Variable Wind from NE
Gusts 3.1 mph

Today
High -- | Low -- °F
--% Chance of Precip.
Yesterday
High -- | Low -- °F
Precip. -- in
7:00 AM 6:02 PM
Waxing Gibbous, 74% visible
Pressure 29.96 in
Visibility 9.0 miles
Clouds Overcast 3000 ft
Windchill 20 °F
Dew Point 10 °F
Humidity 66%
Rainfall 0.00 in
Snow Depth Not available.
UV 0 out of 12
Pollen .10 out of 12
Air Quality Not available.
Flu Activity Not available.
SPECI KLVM 280528Z AUTO 07009KT 9SM -SN OVC030 M09/M13 A2996 RMK AO2 SNB19 P0000 T10941128

More Conditions Fewer Conditions

Pressure 29.96 in
Visibility 9.0 miles
Clouds Overcast 3000 ft
Windchill 20 °F
Dew Point 10 °F
Humidity 66%
Rainfall 0.00 in
Snow Depth Not available.
UV 0 out of 12
Pollen .10 out of 12
Air Quality Not available.
Flu Activity Not available.
SPECI KLVM 280528Z AUTO 07009KT 9SM -SN OVC030 M09/M13 A2996 RMK AO2 SNB19 P0000 T10941128

More Conditions Fewer Conditions

10-Day Weather Forecast

Almanac

Astronomy

Feb. 27, 2015 Rise Set
Actual Time
Civil Twilight
Nautical Twilight
Astronomical Twilight
Moon
Length of Visible Light
Length of Day
Tomorrow will be .
, % of the Moon is Illuminated

Today's Extremes

State Highs State Lows

Community

WunderPhotos

Upload Photos

1,800,973 photos uploaded!

WunderBlogs® & News

Nearby

Air Quality

  Air Quality AQ Index Pollutant
Not available.

Snow Depth

Station Depth Elevation

Earthquake Activity

City Distance Mag. Time & Date
Minimum magnitude displayed is 2.5.

Coastal Water Temperatures

Place Temperature

Nearby Weather Stations